Latest Weather Observations for Cunderdin Airport

IDW60801

Issued at 12:02 pm WST Saturday 4 July 2015 (issued every 30 minutes, with the page automatically refreshed every 10 minutes)

About weather observations | Map of weather stations | Latest weather observations for WA | Other Formats
Station Details ID: 010286 Name: CUNDERDIN AIRFIELD Lat: -31.62 Lon: 117.22 Height: 216.7 m
Data from the previous 72 hours. | See also: Recent months at Cunderdin Airport
Date/Time
WST
Temp
°C
App
Temp
°C
Dew
Point
Rel
Hum
%
Delta-T
°C
Wind Press
QNH
hPa
Press
MSL
hPa
Rain
since 9 am
mm
Dir
 
Spd
km/h
Gust
km/h
Spd
kts
Gust
kts
04/12:00pm 16.7 14.5 13.4 81 1.9 W 17 20 9 11 1022.9 1023.1 0.0
04/11:30am 17.5 17.1 14.0 80 2.0 NW 9 15 5 8 1023.1 1023.3 0.0
04/11:00am 16.8 17.5 13.5 81 1.9 N 2 9 1 5 1023.4 1023.6 0.0
04/10:30am 15.9 17.8 15.7 99 0.1 CALM 0 6 0 3 1023.8 1024.0 0.0
04/10:00am 14.6 14.8 14.6 100 0.0 NE 7 9 4 5 1024.1 1024.2 0.0
04/09:30am 13.5 12.9 13.5 100 0.0 NNE 9 11 5 6 1023.9 1024.1 0.0
04/09:00am 12.0 10.9 11.8 99 0.1 N 9 11 5 6 1024.1 1024.2 0.4
04/08:30am 11.4 10.5 11.2 99 0.1 NW 7 11 4 6 1024.1 1024.2 0.4
04/08:00am 10.9 9.8 10.7 99 0.1 WNW 7 9 4 5 1023.9 1024.1 0.4
04/07:30am 10.7 9.6 10.5 99 0.1 WNW 7 9 4 5 1023.8 1024.0 0.4
04/07:00am 10.6 9.1 10.4 99 0.1 W 9 11 5 6 1023.6 1023.8 0.4
04/06:30am 10.6 9.4 10.4 99 0.1 WNW 7 9 4 5 1023.5 1023.7 0.4
04/06:00am 10.6 9.1 10.4 99 0.1 W 9 11 5 6 1023.2 1023.4 0.4
04/05:30am 10.7 9.2 10.5 99 0.1 WNW 9 11 5 6 1022.9 1023.1 0.4
04/05:00am 10.9 9.1 10.7 99 0.1 WNW 11 13 6 7 1022.8 1023.0 0.4
04/04:30am 11.1 10.1 10.9 99 0.1 WNW 7 9 4 5 1022.8 1023.0 0.4
04/04:00am 10.8 10.3 10.6 99 0.1 W 4 6 2 3 1022.8 1023.0 0.4
04/03:30am 10.4 9.1 10.1 98 0.2 W 7 9 4 5 1022.9 1023.1 0.4
04/03:00am 9.9 9.8 9.6 98 0.2 CALM 0 4 0 2 1022.9 1023.1 0.4
04/02:30am 9.6 7.8 9.3 98 0.2 W 9 9 5 5 1023.0 1023.2 0.2
04/02:00am 10.4 9.1 10.1 98 0.2 WNW 7 9 4 5 1023.0 1023.2 0.2
04/01:30am 10.6 9.0 10.3 98 0.2 WNW 9 11 5 6 1023.2 1023.4 0.2
04/01:00am 10.9 8.6 10.6 98 0.2 WNW 13 13 7 7 1023.3 1023.5 0.2
04/12:30am 10.8 8.9 10.5 98 0.2 WNW 11 13 6 7 1023.5 1023.7 0.2
04/12:00am 11.2 9.4 10.9 98 0.2 W 11 13 6 7 1023.5 1023.7 0.2
 
Date/Time
WST
Temp
°C
App
Temp
°C
Dew
Point
Rel
Hum
%
Delta-T
°C
Wind Press
QNH
hPa
Press
MSL
hPa
Rain
since 9 am
mm
Dir
 
Spd
km/h
Gust
km/h
Spd
kts
Gust
kts
03/11:30pm 11.7 10.9 11.2 97 0.3 WNW 6 7 3 4 1023.4 1023.6 0.2
03/11:00pm 12.3 11.2 11.8 97 0.3 WNW 9 11 5 6 1023.5 1023.7 0.2
03/10:30pm 12.6 11.5 12.1 97 0.3 WNW 9 9 5 5 1023.7 1023.9 0.2
03/10:00pm 13.2 13.3 12.7 97 0.3 W 4 7 2 4 1023.5 1023.7 0.2
03/09:30pm 13.3 13.4 12.8 97 0.3 WSW 4 7 2 4 1023.6 1023.8 0.2
03/09:00pm 13.3 14.1 12.7 96 0.3 CALM 0 0 0 0 1023.5 1023.7 0.2
03/08:30pm 13.6 12.8 13.0 96 0.3 NNW 9 11 5 6 1023.5 1023.7 0.2
03/08:00pm 13.8 13.0 13.0 95 0.4 NW 9 11 5 6 1023.4 1023.6 0.2
03/07:30pm 14.2 15.3 13.4 95 0.4 CALM 0 0 0 0 1023.5 1023.7 0.2
03/07:00pm 14.4 15.5 13.6 95 0.4 CALM 0 0 0 0 1023.3 1023.5 0.2
03/06:30pm 14.9 16.1 13.8 93 0.6 CALM 0 0 0 0 1023.3 1023.5 0.2
03/06:00pm 15.6 17.0 14.3 92 0.7 CALM 0 0 0 0 1022.9 1023.1 0.2
03/05:30pm 15.8 17.0 13.8 88 1.1 CALM 0 0 0 0 1022.6 1022.8 0.2
03/05:00pm 16.9 18.3 14.5 86 1.4 CALM 0 0 0 0 1022.5 1022.7 0.2
03/04:30pm 17.9 18.3 14.8 82 1.8 NW 6 11 3 6 1022.3 1022.5 0.2
03/04:00pm 18.7 18.9 14.8 78 2.3 NW 7 11 4 6 1022.2 1022.4 0.2
03/03:30pm 20.5 20.3 14.6 69 3.5 NW 9 15 5 8 1022.1 1022.3 0.2
03/03:00pm 19.0 19.3 14.5 75 2.6 WNW 6 9 3 5 1022.1 1022.3 0.2
03/02:30pm 20.3 20.1 14.7 70 3.3 NW 9 13 5 7 1022.0 1022.2 0.2
03/02:00pm 19.8 18.9 14.8 73 2.9 WNW 13 17 7 9 1022.1 1022.3 0.2
03/01:30pm 19.1 17.8 14.8 76 2.5 W 15 19 8 10 1022.3 1022.5 0.2
03/01:00pm 19.1 18.8 15.4 79 2.2 W 11 15 6 8 1022.5 1022.7 0.2
03/12:30pm 18.4 17.6 15.1 81 1.9 W 13 17 7 9 1022.8 1023.0 0.2
03/12:00pm 18.0 16.9 15.4 85 1.5 WNW 15 20 8 11 1023.2 1023.4 0.2
03/11:30am 17.8 16.3 15.4 86 1.4 WNW 17 20 9 11 1023.5 1023.7 0.2
03/11:00am 17.4 16.4 15.6 89 1.1 NW 15 19 8 10 1023.7 1023.9 0.2
03/10:30am 16.2 15.3 14.9 92 0.8 WNW 13 17 7 9 1024.2 1024.3 0.2
03/10:00am 15.1 14.7 14.0 93 0.6 NW 9 11 5 6 1024.2 1024.3 0.2
03/09:30am 14.9 14.1 13.9 94 0.6 WNW 11 13 6 7 1024.2 1024.3 0.2
03/09:00am 14.4 13.4 13.4 94 0.6 NW 11 13 6 7 1023.9 1024.1 2.6
03/08:30am 14.0 13.4 13.4 96 0.3 NNW 9 11 5 6 1023.8 1024.0 2.6
03/08:00am 13.3 14.1 12.7 96 0.3 CALM 0 0 0 0 1023.6 1023.8 2.6
03/07:30am 12.8 13.5 12.2 96 0.3 CALM 0 0 0 0 1023.2 1023.4 2.6
03/07:00am 13.1 13.9 12.5 96 0.3 CALM 0 0 0 0 1022.9 1023.1 2.6
03/06:30am 13.1 12.7 12.3 95 0.4 S 6 9 3 5 1022.8 1023.0 2.6
03/06:00am 13.1 13.1 12.3 95 0.4 S 4 7 2 4 1022.5 1022.7 2.6
03/05:30am 13.3 13.7 12.5 95 0.4 NE 2 7 1 4 1022.2 1022.4 2.6
03/05:00am 12.9 13.6 12.1 95 0.4 CALM 0 4 0 2 1022.1 1022.3 2.6
03/04:30am 13.0 12.9 12.1 94 0.5 E 4 9 2 5 1022.1 1022.3 2.6
03/04:00am 13.0 13.3 12.1 94 0.5 ESE 2 7 1 4 1022.3 1022.5 2.6
03/03:30am 13.0 12.5 12.1 94 0.5 ENE 6 9 3 5 1022.6 1022.8 2.6
03/03:00am 13.0 12.3 12.1 94 0.5 ESE 7 11 4 6 1022.9 1023.1 2.6
03/02:30am 12.9 12.4 12.0 94 0.5 ESE 6 7 3 4 1022.8 1023.0 2.6
03/02:00am 12.9 12.4 12.0 94 0.5 ESE 6 7 3 4 1022.8 1023.0 2.6
03/01:30am 12.8 12.3 12.0 95 0.4 SE 6 7 3 4 1023.0 1023.2 2.6
03/01:00am 12.8 12.1 12.0 95 0.4 SSE 7 9 4 5 1023.1 1023.3 2.6
03/12:30am 12.7 12.0 11.9 95 0.4 ENE 7 11 4 6 1023.1 1023.3 2.6
03/12:00am 12.5 11.7 11.7 95 0.4 ENE 7 9 4 5 1023.4 1023.6 2.6
 
Date/Time
WST
Temp
°C
App
Temp
°C
Dew
Point
Rel
Hum
%
Delta-T
°C
Wind Press
QNH
hPa
Press
MSL
hPa
Rain
since 9 am
mm
Dir
 
Spd
km/h
Gust
km/h
Spd
kts
Gust
kts
02/11:30pm 12.6 12.1 12.0 96 0.3 NE 6 9 3 5 1023.6 1023.8 2.6
02/11:00pm 12.7 12.0 11.9 95 0.4 NE 7 9 4 5 1023.6 1023.8 2.6
02/10:30pm 12.9 12.3 11.8 93 0.6 ENE 6 7 3 4 1023.7 1023.9 2.4
02/10:00pm 13.2 12.0 11.6 90 0.9 NW 9 13 5 7 1024.7 1024.9 1.6
02/09:30pm 13.7 14.2 11.7 88 1.1 CALM 0 0 0 0 1024.7 1024.9 0.2
02/09:00pm 13.8 14.3 11.5 86 1.2 CALM 0 0 0 0 1024.2 1024.3 0.2
02/08:30pm 13.9 13.7 11.9 88 1.1 NNE 4 9 2 5 1024.1 1024.2 0.2
02/08:00pm 13.8 13.8 11.3 85 1.3 N 2 7 1 4 1024.1 1024.2 0.2
02/07:30pm 14.5 14.1 11.1 80 1.8 E 4 7 2 4 1023.4 1023.6 0.2
02/07:00pm 14.4 13.3 10.8 79 1.9 ENE 7 11 4 6 1023.0 1023.2 0.2
02/06:30pm 14.2 12.8 11.0 81 1.7 NE 9 11 5 6 1022.8 1023.0 0.2
02/06:00pm 15.0 12.7 10.4 74 2.4 NNE 13 17 7 9 1022.6 1022.8 0.2
02/05:30pm 15.0 13.2 11.0 77 2.1 NNE 11 13 6 7 1022.4 1022.6 0.2
02/05:00pm 16.0 14.4 11.6 75 2.4 NE 11 15 6 8 1022.2 1022.4 0.2
02/04:30pm 16.3 14.5 12.1 76 2.3 NE 13 17 7 9 1022.3 1022.5 0.2
02/04:00pm 16.4 15.1 12.4 77 2.2 ENE 11 13 6 7 1022.4 1022.6 0.2
02/03:30pm 16.7 15.1 11.6 72 2.8 ENE 11 13 6 7 1022.2 1022.4 0.2
02/03:00pm 16.5 14.5 11.4 72 2.8 ENE 13 17 7 9 1022.2 1022.4 0.2
02/02:30pm 16.3 13.9 11.5 73 2.6 ENE 15 20 8 11 1022.3 1022.5 0.2
02/02:00pm 16.2 14.0 10.7 70 2.9 ENE 13 19 7 10 1022.5 1022.7 0.2
02/01:30pm 16.2 14.0 10.7 70 3.0 ENE 13 17 7 9 1022.9 1023.1 0.2
02/01:00pm 16.1 14.3 10.8 71 2.8 ENE 11 15 6 8 1023.4 1023.6 0.0
02/12:30pm 15.8 15.0 11.2 74 2.5 E 6 9 3 5 1023.8 1024.0 0.0
02/12:00pm 15.6 15.9 11.0 74 2.5 CALM 0 6 0 3 1024.5 1024.7 0.0
02/11:30am 15.1 12.9 10.7 75 2.4 NE 13 17 7 9 1024.6 1024.8 0.0
02/11:00am 15.0 13.5 10.6 75 2.3 ENE 9 11 5 6 1025.0 1025.2 0.0
02/10:30am 14.8 13.1 11.2 79 1.9 ENE 11 15 6 8 1024.8 1025.0 0.0
02/10:00am 14.1 12.3 10.7 80 1.8 ENE 11 15 6 8 1024.8 1025.0 0.0
02/09:30am 13.6 12.4 10.4 81 1.7 ENE 7 11 4 6 1025.0 1025.2 0.0
02/09:00am 13.1 12.7 9.9 81 1.7 ESE 2 7 1 4 1024.9 1025.1 0.4
02/08:30am 12.7 10.6 9.9 83 1.5 E 11 13 6 7 1024.7 1024.9 0.4
02/08:00am 12.4 9.6 10.0 85 1.2 ENE 15 17 8 9 1024.1 1024.2 0.4
02/07:30am 12.4 9.2 9.8 84 1.3 ENE 17 20 9 11 1023.8 1024.0 0.4
02/07:00am 12.5 8.7 9.9 84 1.3 ENE 20 24 11 13 1023.8 1024.0 0.4
02/06:30am 12.7 10.6 9.9 83 1.5 ENE 11 15 6 8 1024.2 1024.3 0.4
02/06:00am 12.6 9.4 9.8 83 1.4 E 17 20 9 11 1023.6 1023.8 0.4
02/05:30am 12.8 11.1 9.8 82 1.6 ESE 9 15 5 8 1023.9 1024.1 0.4
02/05:00am 12.1 11.9 10.5 90 0.8 SE 2 6 1 3 1024.5 1024.7 0.4
02/04:30am 12.4 10.9 10.5 88 1.0 S 9 13 5 7 1024.7 1024.9 0.4
02/04:00am 12.2 9.9 10.6 90 0.8 SSW 13 15 7 8 1024.4 1024.6 0.4
02/03:30am 12.4 9.6 10.1 86 1.2 ENE 15 19 8 10 1023.3 1023.5 0.4
02/03:00am 12.4 10.5 10.5 88 1.0 ENE 11 15 6 8 1023.5 1023.7 0.2
02/02:30am 12.2 11.2 10.9 92 0.7 E 7 9 4 5 1024.3 1024.4 0.2
02/02:00am 12.5 11.5 11.1 91 0.7 ENE 7 13 4 7 1025.2 1025.4 0.2
02/01:30am 12.6 11.7 11.3 92 0.7 E 7 9 4 5 1025.5 1025.7 0.2
02/01:00am 12.7 13.1 11.3 91 0.7 CALM 0 0 0 0 1025.4 1025.6 0.0
02/12:30am 12.8 13.2 11.2 90 0.9 CALM 0 6 0 3 1025.4 1025.6 0.0
02/12:00am 13.0 12.9 10.7 86 1.2 NNE 2 6 1 3 1025.5 1025.7 0.0
 
Date/Time
WST
Temp
°C
App
Temp
°C
Dew
Point
Rel
Hum
%
Delta-T
°C
Wind Press
QNH
hPa
Press
MSL
hPa
Rain
since 9 am
mm
Dir
 
Spd
km/h
Gust
km/h
Spd
kts
Gust
kts
01/11:30pm 13.0 11.9 10.7 86 1.2 NNW 7 11 4 6 1025.5 1025.7 0.0
01/11:00pm 14.0 12.2 9.4 74 2.4 SSE 9 13 5 7 1025.3 1025.5 0.0
01/10:30pm 13.6 12.0 10.2 80 1.8 S 9 11 5 6 1025.6 1025.8 0.0
01/10:00pm 13.9 13.7 9.1 73 2.5 CALM 0 0 0 0 1025.7 1025.9 0.0
01/09:30pm 14.0 12.9 8.6 70 2.7 N 4 9 2 5 1025.7 1025.9 0.0
01/09:00pm 14.1 12.1 8.7 70 2.7 NNE 9 11 5 6 1025.5 1025.7 0.0
01/08:30pm 14.5 14.3 8.9 69 2.9 CALM 0 0 0 0 1025.5 1025.7 0.0
01/08:00pm 14.9 14.3 7.5 61 3.7 CALM 0 0 0 0 1025.7 1025.9 0.0
01/07:30pm 15.2 13.3 6.7 57 4.2 W 6 7 3 4 1025.6 1025.8 0.0
01/07:00pm 15.2 13.2 7.0 58 4.0 NW 7 9 4 5 1025.6 1025.8 0.0
01/06:30pm 15.7 14.5 6.4 54 4.6 NW 2 7 1 4 1025.3 1025.5 0.0
01/06:00pm 16.3 14.2 5.9 50 5.1 NW 6 7 3 4 1025.2 1025.4 0.0
01/05:30pm 17.1 14.6 6.6 50 5.2 NW 9 11 5 6 1025.1 1025.3 0.0
01/05:00pm 17.9 16.1 7.0 49 5.5 N 6 7 3 4 1025.0 1025.2 0.0
01/04:30pm 18.8 16.9 6.6 45 6.2 N 6 9 3 5 1024.7 1024.9 0.0
01/04:00pm 19.4 16.2 5.1 39 7.0 N 11 13 6 7 1024.5 1024.7 0.0
01/03:30pm 19.9 16.6 4.4 36 7.5 NNW 11 13 6 7 1024.3 1024.4 0.0
01/03:00pm 20.6 17.2 3.8 33 8.1 N 11 15 6 8 1023.6 1023.8 0.0
01/02:30pm 20.8 17.4 4.0 33 8.2 N 11 13 6 7 1023.6 1023.8 0.0
01/02:00pm 20.5 17.4 3.7 33 8.1 NNW 9 15 5 8 1023.6 1023.8 0.0
01/01:30pm 20.7 16.0 3.4 32 8.3 N 17 20 9 11 1023.7 1023.9 0.0
01/01:00pm 21.1 16.1 3.8 32 8.4 N 19 22 10 12 1024.2 1024.3 0.0
01/12:30pm 21.5 17.0 4.1 32 8.5 N 17 22 9 12 1024.3 1024.4 0.0

Other Formats:

Comma delimited format used in spreadsheet applications
http://www.bom.gov.au/fwo/IDW60801/IDW60801.95625.axf

JavaScript Object Notation format (JSON) in row-major order
http://www.bom.gov.au/fwo/IDW60801/IDW60801.95625.json